Time;durP1;ratioP1;P1;durP2;ratioP2;P2;SDS_P1;SDS_P2;PMS_P1;PMS_P2;Temp;Humidity;BMP_temperature;BMP_pressure;BME280_temperature;BME280_humidity;BME280_pressure;Samples;Min_cycle;Max_cycle;Signal;HPM_P1;HPM_P2
2021/01/19 00:02:12;;;;;;;5.38;3.88;;;;;;;;;;4883487;24;20061;-89
2021/01/19 00:04:49;;;;;;;1.20;1.20;;;;;;;;;;4863238;29;20026;-91
2021/01/19 00:07:32;;;;;;;4.90;1.58;;;;;;;;;;4857968;29;20042;-91
2021/01/19 00:10:17;;;;;;;2.50;1.70;;;;;;;;;;4881943;29;20235;-92
2021/01/19 00:13:32;;;;;;;4.40;2.22;;;;;;;;;;4844827;29;20053;-90
2021/01/19 00:16:05;;;;;;;6.05;1.77;;;;;;;;;;4792665;30;20066;-91
2021/01/19 00:18:45;;;;;;;3.55;1.92;;;;;;;;;;4807109;29;20069;-91
2021/01/19 00:21:51;;;;;;;7.40;1.70;;;;;;;;;;4816332;29;20069;-90
2021/01/19 00:24:35;;;;;;;2.22;2.00;;;;;;;;;;4845336;24;20062;-92
2021/01/19 00:27:14;;;;;;;14.35;2.05;;;;;;;;;;4831601;29;20057;-91
2021/01/19 00:30:03;;;;;;;6.95;1.45;;;;;;;;;;4816549;29;20054;-92
2021/01/19 00:32:32;;;;;;;5.10;1.77;;;;;;;;;;4819366;29;20055;-92
2021/01/19 00:35:26;;;;;;;4.28;2.08;;;;;;;;;;4816430;29;20054;-91
2021/01/19 00:38:14;;;;;;;1.98;1.65;;;;;;;;;;4789492;29;20067;-91
2021/01/19 00:41:26;;;;;;;1.65;1.58;;;9.40;99.90;;;;;;4823049;29;20064;-90
2021/01/19 00:44:44;;;;;;;1.20;1.10;;;9.50;99.90;;;;;;4810768;29;20063;-91
2021/01/19 00:47:23;;;;;;;2.92;1.70;;;;;;;;;;4824224;29;20065;-93
2021/01/19 00:50:36;;;;;;;1.05;1.00;;;9.50;99.90;;;;;;4831961;29;20039;-91
2021/01/19 00:53:25;;;;;;;1.88;1.42;;;;;;;;;;4823108;29;20059;-93
2021/01/19 00:56:32;;;;;;;1.70;1.60;;;;;;;;;;4839646;29;20031;-92
2021/01/19 00:59:32;;;;;;;2.15;1.05;;;;;;;;;;4817662;29;20069;-91
2021/01/19 01:02:07;;;;;;;2.03;1.20;;;;;;;;;;4828554;29;20053;-91
2021/01/19 01:04:37;;;;;;;2.45;1.20;;;;;;;;;;4821904;29;20540;-92
2021/01/19 01:07:12;;;;;;;1.80;1.20;;;;;;;;;;4821357;29;20051;-92
2021/01/19 01:10:01;;;;;;;2.95;0.90;;;;;;;;;;4901344;24;20058;-93
2021/01/19 01:12:39;;;;;;;1.15;1.05;;;;;;;;;;4859778;29;20061;-93
2021/01/19 01:15:34;;;;;;;1.40;1.20;;;;;;;;;;4874557;29;20061;-91
2021/01/19 01:18:16;;;;;;;3.05;1.20;;;;;;;;;;4865527;29;20061;-93
2021/01/19 01:21:10;;;;;;;2.17;1.98;;;;;;;;;;4844521;29;20056;-92
2021/01/19 01:23:57;;;;;;;1.02;0.90;;;;;;;;;;4826775;29;20069;-92
2021/01/19 01:26:30;;;;;;;1.08;1.08;;;;;;;;;;4848032;29;20062;-92
2021/01/19 01:29:08;;;;;;;3.28;1.25;;;;;;;;;;4854166;29;20049;-90
2021/01/19 01:32:08;;;;;;;2.33;1.25;;;;;;;;;;4861394;29;20049;-92
2021/01/19 01:35:13;;;;;;;1.52;1.42;;;;;;;;;;4855112;29;20061;-93
2021/01/19 01:38:10;;;;;;;3.10;1.88;;;;;;;;;;4843782;29;20049;-91
2021/01/19 01:40:47;;;;;;;1.25;1.15;;;;;;;;;;4847347;29;20336;-92
2021/01/19 01:43:48;;;;;;;1.77;1.50;;;;;;;;;;4861663;29;20049;-92
2021/01/19 01:46:54;;;;;;;3.72;1.10;;;;;;;;;;4870072;29;20068;-90
2021/01/19 01:49:45;;;;;;;2.85;1.27;;;;;;;;;;4863955;29;20058;-91
2021/01/19 01:52:25;;;;;;;2.08;1.05;;;;;;;;;;4853985;29;20059;-92
2021/01/19 01:55:14;;;;;;;1.95;1.55;;;;;;;;;;4854188;29;20036;-92
2021/01/19 01:58:17;;;;;;;5.15;1.67;;;;;;;;;;4856232;29;20053;-91
2021/01/19 02:01:24;;;;;;;4.97;1.70;;;;;;;;;;4857918;29;20073;-91
2021/01/19 02:04:14;;;;;;;2.83;1.08;;;9.90;99.90;;;;;;4849802;29;20053;-91
2021/01/19 02:07:30;;;;;;;1.70;1.13;;;;;;;;;;4867492;29;20053;-90
2021/01/19 02:10:45;;;;;;;1.02;0.93;;;9.90;99.90;;;;;;4867091;29;20062;-91
2021/01/19 02:13:33;;;;;;;2.25;1.20;;;;;;;;;;4848691;29;20083;-91
2021/01/19 02:16:25;;;;;;;7.28;2.45;;;;;;;;;;4864745;29;20061;-92
2021/01/19 02:19:33;;;;;;;4.53;1.73;;;;;;;;;;4852280;29;20077;-91
2021/01/19 02:22:43;;;;;;;3.97;1.40;;;;;;;;;;4857017;29;20044;-91
2021/01/19 02:25:33;;;;;;;2.05;1.13;;;;;;;;;;4880763;29;20502;-91
2021/01/19 02:28:09;;;;;;;0.90;0.90;;;;;;;;;;4890615;29;20053;-91
2021/01/19 02:31:23;;;;;;;5.35;2.40;;;;;;;;;;4876707;29;20060;-91
2021/01/19 02:34:36;;;;;;;4.55;1.80;;;9.80;99.90;;;;;;4863886;29;20477;-92
2021/01/19 02:37:56;;;;;;;1.65;1.10;;;;;;;;;;4862965;29;20050;-92
2021/01/19 02:41:00;;;;;;;1.23;1.10;;;;;;;;;;4864454;29;20071;-91
2021/01/19 02:44:14;;;;;;;0.93;0.93;;;;;;;;;;4838178;29;20050;-93
2021/01/19 02:47:34;;;;;;;2.50;2.22;;;9.80;99.90;;;;;;4846241;29;20049;-93
2021/01/19 02:50:27;;;;;;;1.15;0.90;;;;;;;;;;4865631;29;20045;-92
2021/01/19 02:53:11;;;;;;;1.52;1.42;;;;;;;;;;4833744;29;20064;-94
2021/01/19 02:56:18;;;;;;;0.90;0.90;;;;;;;;;;4843238;29;20066;-93
2021/01/19 02:59:22;;;;;;;1.00;1.00;;;;;;;;;;4841195;29;20059;-93
2021/01/19 03:02:21;;;;;;;1.52;0.82;;;;;;;;;;4841654;29;20054;-93
2021/01/19 03:05:15;;;;;;;0.90;0.90;;;;;;;;;;4836448;29;20063;-93
2021/01/19 03:08:36;;;;;;;1.15;0.90;;;9.80;99.90;;;;;;4852209;29;20049;-93
2021/01/19 03:11:28;;;;;;;1.40;1.30;;;;;;;;;;4300799;29;16037671;-92
2021/01/19 03:14:47;;;;;;;0.90;0.90;;;;;;;;;;4831704;29;20058;-93
2021/01/19 03:18:10;;;;;;;;;;;9.80;99.90;;;;;;4841496;29;20062;-93
2021/01/19 03:21:20;;;;;;;1.02;0.90;;;;;;;;;;4851213;29;19939;-94
2021/01/19 03:24:16;;;;;;;3.90;1.65;;;;;;;;;;4839415;29;20050;-91
2021/01/19 03:27:08;;;;;;;1.85;0.90;;;;;;;;;;4829831;29;20053;-91
2021/01/19 03:29:59;;;;;;;1.05;1.00;;;;;;;;;;4821584;29;20067;-94
2021/01/19 03:32:50;;;;;;;1.27;0.90;;;;;;;;;;4829669;29;20050;-92
2021/01/19 03:35:39;;;;;;;0.90;0.90;;;;;;;;;;4836092;29;20049;-91
2021/01/19 03:38:48;;;;;;;1.27;0.88;;;;;;;;;;4828481;29;20057;-92
2021/01/19 03:41:41;;;;;;;0.70;0.70;;;;;;;;;;4861025;24;20062;-92
2021/01/19 03:44:48;;;;;;;0.80;0.80;;;;;;;;;;4873783;29;20057;-91
2021/01/19 03:48:20;;;;;;;2.65;0.98;;;10.00;99.90;;;;;;4866835;29;20042;-90
2021/01/19 03:51:22;;;;;;;1.10;1.10;;;;;;;;;;4882323;29;20081;-92
2021/01/19 03:54:43;;;;;;;0.70;0.70;;;;;;;;;;4850971;29;20056;-92
2021/01/19 03:57:40;;;;;;;0.70;0.70;;;;;;;;;;4866204;29;20053;-92
2021/01/19 04:01:07;;;;;;;1.92;0.90;;;10.30;99.90;;;;;;4871397;29;20058;-92
2021/01/19 04:04:06;;;;;;;0.98;0.98;;;;;;;;;;4855782;29;20131;-93
2021/01/19 04:07:09;;;;;;;0.90;0.90;;;;;;;;;;4854660;29;20068;-93
2021/01/19 04:10:24;;;;;;;0.80;0.80;;;;;;;;;;4857626;29;20049;-93
2021/01/19 04:13:16;;;;;;;6.07;1.10;;;;;;;;;;4867303;29;20054;-91
2021/01/19 04:16:29;;;;;;;2.40;0.90;;;;;;;;;;4870892;29;20057;-92
2021/01/19 04:20:04;;;;;;;0.80;0.80;;;;;;;;;;4869487;29;20034;-93
2021/01/19 04:22:59;;;;;;;3.20;1.00;;;;;;;;;;4867850;29;20536;-92
2021/01/19 04:26:06;;;;;;;0.65;0.65;;;;;;;;;;4870552;29;20225;-92
2021/01/19 04:29:05;;;;;;;0.75;0.75;;;;;;;;;;4868485;29;20084;-92
2021/01/19 04:32:30;;;;;;;0.75;0.75;;;;;;;;;;4873666;29;20041;-92
2021/01/19 04:35:41;;;;;;;0.98;0.98;;;;;;;;;;4812392;29;20108;-92
2021/01/19 04:38:30;;;;;;;0.80;0.80;;;;;;;;;;4818113;29;20235;-93
2021/01/19 04:41:30;;;;;;;2.45;0.95;;;;;;;;;;4822225;29;20050;-93
2021/01/19 04:44:17;;;;;;;2.10;2.00;;;;;;;;;;4804613;30;20051;-92
2021/01/19 04:47:34;;;;;;;1.00;1.00;;;;;;;;;;4779679;30;20079;-92
2021/01/19 04:50:36;;;;;;;1.38;1.30;;;;;;;;;;4801484;29;20062;-92
2021/01/19 04:53:26;;;;;;;8.00;1.02;;;;;;;;;;4801755;30;20047;-93
2021/01/19 04:56:20;;;;;;;0.85;0.85;;;;;;;;;;4790569;30;20409;-94
2021/01/19 04:59:11;;;;;;;3.00;1.85;;;;;;;;;;4741236;30;20108;-92
2021/01/19 05:02:11;;;;;;;0.65;0.65;;;;;;;;;;4754776;30;20060;-93
2021/01/19 05:05:39;;;;;;;1.10;1.02;;;;;;;;;;4766586;30;20440;-92
2021/01/19 05:08:54;;;;;;;4.05;1.50;;;;;;;;;;4809338;29;20074;-92
2021/01/19 05:11:54;;;;;;;0.85;0.85;;;;;;;;;;4792088;29;20065;-91
2021/01/19 05:14:57;;;;;;;0.90;0.90;;;;;;;;;;4813479;29;20051;-92
2021/01/19 05:18:20;;;;;;;1.30;1.02;;;;;;;;;;4812075;29;20055;-93
2021/01/19 05:21:42;;;;;;;3.15;1.15;;;;;;;;;;4810373;29;20039;-92
2021/01/19 05:24:43;;;;;;;1.75;0.90;;;;;;;;;;4794824;29;20053;-93
2021/01/19 05:27:57;;;;;;;1.60;0.60;;;;;;;;;;4798000;29;20066;-93
2021/01/19 05:31:21;;;;;;;1.00;0.77;;;;;;;;;;4804932;29;20058;-93
2021/01/19 05:34:32;;;;;;;1.17;0.98;;;;;;;;;;4821935;29;20046;-94
2021/01/19 05:37:25;;;;;;;2.72;0.95;;;;;;;;;;4850996;29;20053;-93
2021/01/19 05:40:20;;;;;;;2.70;1.30;;;;;;;;;;4829300;29;20058;-93
2021/01/19 05:43:17;;;;;;;1.45;0.88;;;;;;;;;;4861103;29;20045;-92
2021/01/19 05:46:29;;;;;;;1.70;1.00;;;;;;;;;;4855811;29;20064;-92
2021/01/19 05:49:53;;;;;;;1.98;1.13;;;;;;;;;;4851999;29;20054;-93
2021/01/19 05:52:46;;;;;;;0.90;0.90;;;;;;;;;;4862916;29;20058;-92
2021/01/19 05:56:02;;;;;;;2.63;0.90;;;;;;;;;;4834259;29;20049;-93
2021/01/19 05:58:53;;;;;;;5.90;1.10;;;;;;;;;;4809090;29;20076;-91
2021/01/19 06:02:07;;;;;;;0.70;0.70;;;;;;;;;;4814980;29;20056;-94
2021/01/19 06:05:01;;;;;;;0.88;0.88;;;;;;;;;;4812594;29;20060;-92
2021/01/19 06:08:03;;;;;;;1.77;1.38;;;;;;;;;;4798214;29;20055;-92
2021/01/19 06:11:17;;;;;;;1.60;1.30;;;;;;;;;;4847789;24;20058;-93
2021/01/19 06:14:20;;;;;;;1.63;1.00;;;;;;;;;;4863043;24;20064;-92
2021/01/19 06:17:27;;;;;;;5.18;1.30;;;;;;;;;;4842590;29;20062;-94
2021/01/19 06:20:58;;;;;;;1.85;0.90;;;11.70;99.90;;;;;;4826939;29;20065;-91
2021/01/19 06:23:50;;;;;;;3.47;1.73;;;;;;;;;;4827220;29;20042;-93
2021/01/19 06:26:51;;;;;;;3.17;1.08;;;;;;;;;;4823778;29;20402;-94
2021/01/19 06:29:51;;;;;;;2.33;1.70;;;;;;;;;;4820188;29;20064;-93
2021/01/19 06:32:46;;;;;;;1.10;0.93;;;;;;;;;;4828866;29;20055;-93
2021/01/19 06:35:52;;;;;;;3.65;1.00;;;;;;;;;;4832175;29;20059;-93
2021/01/19 06:39:02;;;;;;;1.05;1.05;;;;;;;;;;4810838;29;20058;-93
2021/01/19 06:41:47;;;;;;;1.63;0.90;;;;;;;;;;4804758;29;20038;-94
2021/01/19 06:45:45;;;;;;;8.15;1.05;;;11.80;99.90;;;;;;4836042;29;20054;-94
2021/01/19 06:49:27;;;;;;;4.00;2.35;;;;;;;;;;4853122;29;20064;-93
2021/01/19 06:52:51;;;;;;;3.10;0.80;;;;;;;;;;4820783;29;20039;-96
2021/01/19 06:56:09;;;;;;;1.10;1.00;;;;;;;;;;4834701;29;20039;-93
2021/01/19 06:59:56;;;;;;;0.60;0.60;;;11.90;99.90;;;;;;4834512;29;20038;-93
2021/01/19 07:02:46;;;;;;;1.02;0.60;;;;;;;;;;4844272;24;20080;-93
2021/01/19 07:05:23;;;;;;;7.57;1.00;;;;;;;;;;4839954;29;20055;-92
2021/01/19 07:08:19;;;;;;;3.45;1.38;;;;;;;;;;4826132;29;20070;-93
2021/01/19 07:15:03;;;;;;;7.22;1.35;;;;;;;;;;4785462;30;20060;-93
2021/01/19 07:18:25;;;;;;;4.05;1.25;;;;;;;;;;4787988;30;20052;-90
2021/01/19 07:21:15;;;;;;;0.70;0.70;;;11.90;99.90;;;;;;4751234;30;20059;-91
2021/01/19 07:24:08;;;;;;;2.65;0.90;;;;;;;;;;4760150;30;20063;-92
2021/01/19 07:26:47;;;;;;;1.10;1.00;;;;;;;;;;4775386;30;20060;-92
2021/01/19 07:29:59;;;;;;;1.08;0.80;;;;;;;;;;4776312;30;20066;-93
2021/01/19 07:32:33;;;;;;;1.65;1.00;;;;;;;;;;4775256;30;20047;-91
2021/01/19 07:36:07;;;;;;;0.80;0.80;;;11.90;99.90;;;;;;4840208;24;20069;-92
2021/01/19 07:42:26;;;;;;;5.32;1.92;;;;;;;;;;4835900;29;20058;-93
2021/01/19 07:45:59;;;;;;;4.10;1.17;;;11.70;99.90;;;;;;4811347;29;20055;-92
2021/01/19 07:48:39;;;;;;;0.98;0.98;;;;;;;;;;4824244;29;20061;-92
2021/01/19 07:51:20;;;;;;;5.68;1.10;;;;;;;;;;4820342;29;20071;-92
2021/01/19 07:54:38;;;;;;;4.53;1.10;;;;;;;;;;4819290;29;20051;-92
2021/01/19 07:57:53;;;;;;;9.43;1.25;;;;;;;;;;4828343;29;20038;-91
2021/01/19 08:00:34;;;;;;;2.53;1.73;;;;;;;;;;4795564;29;20059;-91
2021/01/19 08:03:41;;;;;;;7.32;1.50;;;11.70;99.90;;;;;;4853026;29;20043;-90
2021/01/19 08:06:34;;;;;;;1.15;1.05;;;;;;;;;;4827093;29;20047;-91
2021/01/19 08:09:37;;;;;;;0.80;0.80;;;12.00;99.90;;;;;;4823497;29;20197;-90
2021/01/19 08:12:15;;;;;;;1.48;1.38;;;;;;;;;;4825290;29;20049;-88
2021/01/19 08:15:04;;;;;;;2.65;0.90;;;11.90;99.90;;;;;;4827385;29;20061;-92
2021/01/19 08:17:39;;;;;;;1.58;0.90;;;;;;;;;;4807839;29;20073;-86
2021/01/19 08:20:09;;;;;;;1.00;0.93;;;;;;;;;;4838056;29;20061;-88
2021/01/19 08:22:57;;;;;;;1.52;1.42;;;11.90;99.90;;;;;;4862502;24;20057;-88
2021/01/19 08:25:28;;;;;;;3.40;2.20;;;11.70;99.90;;;;;;4889985;29;20056;-87
2021/01/19 08:28:01;;;;;;;6.38;2.17;;;11.90;99.90;;;;;;4898522;29;20063;-88
2021/01/19 08:30:51;;;;;;;5.57;2.67;;;11.80;99.90;;;;;;4850994;29;20068;-85
2021/01/19 08:33:25;;;;;;;4.90;1.60;;;11.90;99.90;;;;;;4880341;29;20068;-87
2021/01/19 08:35:55;;;;;;;3.33;1.45;;;;;;;;;;4852959;29;20041;-87
2021/01/19 08:38:23;;;;;;;4.70;1.50;;;11.80;99.90;;;;;;4851471;29;20045;-86
2021/01/19 08:40:55;;;;;;;3.85;1.73;;;11.80;99.90;;;;;;4836947;29;20065;-88
2021/01/19 08:43:28;;;;;;;4.40;1.63;;;11.80;99.90;;;;;;4850957;29;20061;-85
2021/01/19 08:46:00;;;;;;;3.85;1.55;;;;;;;;;;4859006;29;20068;-86
2021/01/19 08:48:28;;;;;;;2.72;1.20;;;;;;;;;;4873525;24;20054;-85
2021/01/19 08:51:00;;;;;;;9.60;1.98;;;;;;;;;;4839922;29;20536;-85
2021/01/19 08:53:28;;;;;;;3.92;1.48;;;11.80;99.90;;;;;;4850062;29;20054;-85
2021/01/19 08:56:16;;;;;;;3.47;1.60;;;;;;;;;;4825466;29;20053;-85
2021/01/19 08:59:23;;;;;;;2.47;1.50;;;11.80;99.90;;;;;;4847578;29;20063;-85
2021/01/19 09:01:55;;;;;;;6.72;2.50;;;;;;;;;;4834704;29;20072;-85
2021/01/19 09:04:29;;;;;;;2.70;1.25;;;;;;;;;;4855623;29;20077;-86
2021/01/19 09:07:14;;;;;;;5.35;1.63;;;;;;;;;;4848726;29;20060;-85
2021/01/19 09:09:46;;;;;;;2.05;1.55;;;11.80;99.90;;;;;;4847038;29;20077;-85
2021/01/19 09:12:23;;;;;;;2.42;1.60;;;11.80;99.90;;;;;;4826435;29;20058;-86
2021/01/19 09:14:54;;;;;;;5.13;1.42;;;11.80;99.90;;;;;;4801678;29;20061;-87
2021/01/19 09:17:28;;;;;;;1.33;1.20;;;11.60;99.90;;;;;;4835490;29;20053;-87
2021/01/19 09:20:16;;;;;;;2.17;1.15;;;11.80;99.90;;;;;;4853758;29;20058;-86
2021/01/19 09:22:47;;;;;;;1.65;1.17;;;;;;;;;;4849172;29;20070;-85
2021/01/19 09:25:23;;;;;;;11.57;1.55;;;11.90;99.90;;;;;;4854293;29;20084;-87
2021/01/19 09:28:05;;;;;;;1.73;1.13;;;12.00;99.90;;;;;;4845620;29;20058;-85
2021/01/19 09:30:39;;;;;;;2.70;1.00;;;;;;;;;;4829689;29;20061;-85
2021/01/19 09:33:09;;;;;;;2.08;1.88;;;12.00;99.90;;;;;;4841578;29;20073;-88
2021/01/19 09:35:48;;;;;;;1.23;1.00;;;12.00;99.90;;;;;;4846468;29;20062;-86
2021/01/19 09:38:18;;;;;;;1.95;0.95;;;;;;;;;;4851073;29;20140;-87
2021/01/19 09:40:48;;;;;;;12.98;1.40;;;;;;;;;;4838045;29;20054;-88
2021/01/19 09:43:21;;;;;;;1.73;1.10;;;;;;;;;;4841024;29;20062;-86
2021/01/19 09:46:04;;;;;;;4.93;1.75;;;12.10;99.90;;;;;;4828743;29;20057;-86
2021/01/19 09:48:54;;;;;;;1.20;1.10;;;12.10;99.90;;;;;;4838153;29;20062;-86
2021/01/19 09:51:26;;;;;;;3.90;1.20;;;12.10;99.90;;;;;;4818972;29;20065;-86
2021/01/19 09:53:56;;;;;;;4.53;1.98;;;;;;;;;;4803659;29;20058;-86
2021/01/19 09:56:28;;;;;;;5.05;2.03;;;11.80;99.90;;;;;;4805808;29;20066;-86
2021/01/19 09:59:07;;;;;;;2.28;1.10;;;12.10;99.90;;;;;;4833887;29;20072;-87
2021/01/19 10:01:50;;;;;;;1.42;1.20;;;12.10;99.90;;;;;;4816514;29;20062;-86
2021/01/19 10:04:21;;;;;;;2.80;1.20;;;;;;;;;;4799591;29;20053;-86
2021/01/19 10:07:03;;;;;;;1.67;0.80;;;;;;;;;;4816419;29;20058;-84
2021/01/19 10:09:36;;;;;;;1.13;0.98;;;12.20;99.90;;;;;;4820068;29;20054;-86
2021/01/19 10:12:10;;;;;;;1.40;1.15;;;12.20;99.90;;;;;;4803757;29;20054;-85
2021/01/19 10:14:40;;;;;;;1.10;1.00;;;12.20;99.90;;;;;;4833962;29;20050;-87
2021/01/19 10:17:33;;;;;;;1.35;0.95;;;12.20;99.90;;;;;;4833784;29;20054;-86
2021/01/19 10:20:14;;;;;;;2.30;0.93;;;;;;;;;;4809519;29;20050;-88
2021/01/19 10:22:45;;;;;;;1.27;1.02;;;12.20;99.90;;;;;;4785199;29;20499;-88
2021/01/19 10:25:29;;;;;;;3.03;1.20;;;12.20;99.90;;;;;;4826040;29;20054;-86
2021/01/19 10:28:00;;;;;;;2.17;1.17;;;12.10;99.90;;;;;;4809343;29;20043;-87
2021/01/19 10:30:40;;;;;;;2.47;1.57;;;12.20;99.90;;;;;;4799660;29;20062;-88
2021/01/19 10:33:09;;;;;;;4.63;1.38;;;;;;;;;;4807272;29;20057;-87
2021/01/19 10:35:41;;;;;;;6.55;1.75;;;;;;;;;;4828471;29;20063;-88
2021/01/19 10:38:09;;;;;;;3.85;1.58;;;12.10;99.90;;;;;;4825739;29;20058;-88
2021/01/19 10:40:47;;;;;;;1.85;1.27;;;12.10;99.90;;;;;;4814364;29;20046;-91
2021/01/19 10:43:23;;;;;;;1.33;0.95;;;;;;;;;;4801254;29;20058;-87
2021/01/19 10:45:54;;;;;;;7.00;1.00;;;;;;;;;;4827940;29;20551;-88
2021/01/19 10:48:22;;;;;;;2.03;1.45;;;12.10;99.90;;;;;;4813707;29;20058;-87
2021/01/19 10:50:50;;;;;;;3.67;1.35;;;;;;;;;;4817732;29;20065;-87
2021/01/19 10:53:28;;;;;;;2.58;1.60;;;12.10;99.90;;;;;;4823824;29;20062;-90
2021/01/19 10:55:56;;;;;;;1.42;1.05;;;;;;;;;;4822653;29;20053;-88
2021/01/19 10:58:30;;;;;;;5.45;1.23;;;;;;;;;;4815364;29;20055;-88
2021/01/19 11:00:59;;;;;;;4.65;1.42;;;;;;;;;;4813379;29;20046;-88
2021/01/19 11:03:31;;;;;;;1.95;1.05;;;;;;;;;;4797646;29;20065;-88
2021/01/19 11:06:07;;;;;;;4.80;1.25;;;;;;;;;;4829917;29;20066;-88
2021/01/19 11:08:37;;;;;;;2.05;1.02;;;12.20;99.90;;;;;;4821596;29;20082;-87
2021/01/19 11:11:11;;;;;;;1.63;1.48;;;12.10;99.90;;;;;;4809172;29;20055;-87
2021/01/19 11:13:39;;;;;;;3.63;1.42;;;;;;;;;;4809063;29;20058;-90
2021/01/19 11:16:08;;;;;;;1.58;1.23;;;;;;;;;;4802903;29;20054;-89
2021/01/19 11:18:36;;;;;;;5.30;2.25;;;;;;;;;;4798060;29;20050;-87
2021/01/19 11:21:05;;;;;;;4.60;1.60;;;;;;;;;;4812289;29;20059;-89
2021/01/19 11:23:35;;;;;;;3.27;1.67;;;12.10;99.90;;;;;;4823776;29;20062;-88
2021/01/19 11:26:02;;;;;;;3.25;1.73;;;11.90;99.90;;;;;;4829549;29;20054;-86
2021/01/19 11:28:33;;;;;;;3.88;1.42;;;;;;;;;;4819916;29;20058;-90
2021/01/19 11:31:24;;;;;;;3.72;1.40;;;11.80;99.90;;;;;;4821243;29;20180;-86
2021/01/19 11:33:56;;;;;;;2.20;1.30;;;;;;;;;;4812762;29;20050;-86
2021/01/19 11:36:37;;;;;;;2.67;1.77;;;12.10;99.90;;;;;;4829746;29;20062;-87
2021/01/19 11:39:09;;;;;;;3.45;1.92;;;12.00;99.90;;;;;;4810484;29;20081;-86
2021/01/19 11:41:39;;;;;;;2.80;1.58;;;;;;;;;;4811048;29;20059;-87
2021/01/19 11:44:10;;;;;;;2.60;1.65;;;;;;;;;;4821144;29;20063;-87
2021/01/19 11:46:38;;;;;;;6.32;1.83;;;;;;;;;;4821730;29;20069;-89
2021/01/19 11:49:13;;;;;;;6.03;1.95;;;12.10;99.90;;;;;;4830258;29;20061;-88
2021/01/19 11:51:44;;;;;;;7.47;1.98;;;;;;;;;;4851850;29;20064;-94
2021/01/19 11:54:12;;;;;;;3.25;1.73;;;;;;;;;;4823817;29;20061;-88
2021/01/19 11:56:49;;;;;;;4.20;1.90;;;11.90;99.90;;;;;;4840407;29;20064;-88
2021/01/19 11:59:21;;;;;;;6.85;2.17;;;11.70;99.90;;;;;;4846056;29;20050;-88
2021/01/19 12:01:58;;;;;;;3.80;1.90;;;11.80;99.90;;;;;;4849212;29;20388;-88
2021/01/19 12:04:26;;;;;;;4.43;2.65;;;11.80;99.90;;;;;;4841191;29;20054;-88
2021/01/19 12:06:55;;;;;;;3.63;1.90;;;;;;;;;;4852424;29;20068;-90
2021/01/19 12:09:26;;;;;;;5.00;2.35;;;;;;;;;;4844265;29;20058;-89
2021/01/19 12:11:54;;;;;;;5.50;3.50;;;;;;;;;;4813094;29;20077;-88
2021/01/19 12:14:35;;;;;;;6.55;1.45;;;;;;;;;;4851587;24;20062;-89
2021/01/19 12:17:06;;;;;;;7.05;2.67;;;11.50;99.90;;;;;;4819193;29;20382;-88
2021/01/19 12:19:55;;;;;;;7.28;1.92;;;11.60;99.90;;;;;;4834909;29;20055;-87
2021/01/19 12:22:31;;;;;;;12.77;3.10;;;;;;;;;;4837435;29;20043;-88
2021/01/19 12:24:59;;;;;;;4.88;1.73;;;;;;;;;;4818303;29;20042;-88
2021/01/19 12:27:37;;;;;;;7.53;2.00;;;;;;;;;;4873635;24;20058;-88
2021/01/19 12:30:11;;;;;;;3.75;1.50;;;11.50;99.90;;;;;;4845418;29;20038;-87
2021/01/19 12:32:43;;;;;;;3.83;1.55;;;;;;;;;;4842255;29;20536;-89
2021/01/19 12:35:11;;;;;;;1.30;1.10;;;11.50;99.90;;;;;;4856059;29;20061;-88
2021/01/19 12:37:39;;;;;;;7.43;2.90;;;;;;;;;;4826012;29;20058;-85
2021/01/19 12:40:10;;;;;;;4.63;1.23;;;;;;;;;;4854555;29;20546;-89
2021/01/19 12:42:37;;;;;;;11.82;1.60;;;;;;;;;;4850966;29;20522;-87
2021/01/19 12:45:14;;;;;;;4.15;2.33;;;;;;;;;;4843079;29;20577;-92
2021/01/19 12:47:48;;;;;;;12.60;2.90;;;11.60;99.90;;;;;;4849192;29;20065;-85
2021/01/19 12:50:27;;;;;;;7.85;1.65;;;;;;;;;;4854621;29;20054;-87
2021/01/19 12:53:02;;;;;;;2.65;1.70;;;;;;;;;;4855220;29;20050;-84
2021/01/19 12:55:33;;;;;;;6.63;1.77;;;11.40;99.90;;;;;;4838070;29;20051;-85
2021/01/19 12:58:06;;;;;;;4.72;2.70;;;;;;;;;;4822458;29;20061;-84
2021/01/19 13:00:43;;;;;;;4.50;2.70;;;;;;;;;;4850616;29;20050;-85
2021/01/19 13:03:14;;;;;;;7.43;2.05;;;;;;;;;;4810529;29;20061;-90
2021/01/19 13:05:43;;;;;;;5.13;1.33;;;;;;;;;;4851807;29;20054;-84
2021/01/19 13:08:14;;;;;;;4.78;1.42;;;;;;;;;;4832767;29;20050;-90
2021/01/19 13:10:42;;;;;;;7.55;2.65;;;;;;;;;;4820412;29;20069;-82
2021/01/19 13:13:09;;;;;;;5.30;2.05;;;;;;;;;;4835503;29;20057;-85
2021/01/19 13:15:44;;;;;;;5.63;1.83;;;;;;;;;;4828266;29;20058;-87
2021/01/19 13:18:16;;;;;;;9.07;3.22;;;;;;;;;;4823268;29;20061;-83
2021/01/19 13:20:45;;;;;;;3.10;1.67;;;;;;;;;;4839939;29;20078;-83
2021/01/19 13:23:20;;;;;;;1.90;1.38;;;;;;;;;;4807079;29;20050;-87
2021/01/19 13:25:50;;;;;;;6.72;1.83;;;11.30;99.90;;;;;;4813566;29;20054;-86
2021/01/19 13:28:19;;;;;;;4.97;1.38;;;;;;;;;;4811728;29;20054;-83
2021/01/19 13:30:48;;;;;;;2.30;1.40;;;;;;;;;;4837114;29;20076;-87
2021/01/19 13:33:17;;;;;;;2.88;1.42;;;;;;;;;;4836733;29;20061;-84
2021/01/19 13:35:50;;;;;;;2.58;1.38;;;;;;;;;;4843370;29;20069;-82
2021/01/19 13:38:19;;;;;;;9.77;1.92;;;;;;;;;;4841823;29;20081;-85
2021/01/19 13:40:52;;;;;;;1.98;1.15;;;;;;;;;;4825094;29;20057;-85
2021/01/19 13:43:21;;;;;;;8.02;2.15;;;;;;;;;;4841009;29;20046;-84
2021/01/19 13:45:57;;;;;;;8.43;2.42;;;11.20;99.90;;;;;;4845940;29;20050;-85
2021/01/19 13:48:24;;;;;;;6.47;2.40;;;;;;;;;;4845061;29;20066;-85
2021/01/19 13:50:55;;;;;;;4.93;3.00;;;;;;;;;;4800650;29;20058;-85
2021/01/19 13:53:23;;;;;;;8.35;2.25;;;;;;;;;;4830169;29;20049;-86
2021/01/19 13:55:51;;;;;;;7.55;1.40;;;11.60;99.90;;;;;;4835047;29;20053;-85
2021/01/19 13:58:20;;;;;;;10.15;2.58;;;;;;;;;;4828665;29;20046;-85
2021/01/19 14:00:49;;;;;;;6.47;2.70;;;;;;;;;;4809696;29;20065;-86
2021/01/19 14:03:22;;;;;;;4.78;1.98;;;;;;;;;;4831881;29;20057;-82
2021/01/19 14:05:50;;;;;;;5.38;1.67;;;;;;;;;;4824733;29;20049;-87
2021/01/19 14:08:20;;;;;;;2.88;1.60;;;;;;;;;;4841660;29;20521;-82
2021/01/19 14:10:51;;;;;;;6.35;2.22;;;;;;;;;;4841112;29;20061;-86
2021/01/19 14:13:25;;;;;;;4.97;2.05;;;;;;;;;;4839970;29;20446;-86
2021/01/19 14:15:57;;;;;;;7.80;2.30;;;11.00;99.90;;;;;;4833243;29;20050;-88
2021/01/19 14:18:27;;;;;;;5.82;2.17;;;;;;;;;;4841292;29;20058;-85
2021/01/19 14:20:59;;;;;;;7.80;2.15;;;;;;;;;;4841405;29;20066;-84
2021/01/19 14:23:29;;;;;;;9.13;2.30;;;;;;;;;;4817129;29;20046;-84
2021/01/19 14:25:59;;;;;;;3.08;1.67;;;;;;;;;;4843813;29;20056;-85
2021/01/19 14:28:28;;;;;;;7.18;3.30;;;;;;;;;;4836924;29;20518;-84
2021/01/19 14:30:56;;;;;;;10.85;3.38;;;;;;;;;;4821352;29;20051;-83
2021/01/19 14:33:23;;;;;;;8.30;2.00;;;;;;;;;;4823660;29;20404;-90
2021/01/19 14:35:56;;;;;;;6.50;3.00;;;10.80;99.90;;;;;;4843036;29;20053;-86
2021/01/19 14:38:23;;;;;;;4.90;2.15;;;;;;;;;;4824841;29;20068;-89
2021/01/19 14:40:51;;;;;;;6.88;1.80;;;;;;;;;;4822758;29;21311;-90
2021/01/19 14:43:20;;;;;;;5.85;2.15;;;;;;;;;;4841313;29;20061;-87
2021/01/19 14:45:48;;;;;;;7.55;2.40;;;;;;;;;;4840909;29;20081;-86
2021/01/19 14:48:19;;;;;;;9.07;2.28;;;;;;;;;;4811888;29;20062;-88
2021/01/19 14:50:48;;;;;;;7.65;2.92;;;;;;;;;;4820478;29;21662;-85
2021/01/19 14:53:17;;;;;;;7.65;2.22;;;;;;;;;;4840174;29;20069;-90
2021/01/19 14:55:46;;;;;;;8.88;4.18;;;;;;;;;;4837067;29;20060;-86
2021/01/19 14:58:15;;;;;;;9.80;2.50;;;;;;;;;;4848297;29;20574;-85
2021/01/19 15:01:05;;;;;;;8.07;2.00;;;10.80;99.90;;;;;;4832666;29;20050;-85
2021/01/19 15:03:42;;;;;;;3.20;1.55;;;;;;;;;;4808607;29;20049;-86
2021/01/19 15:06:52;;;;;;;12.52;3.42;;;10.50;99.90;;;;;;4848552;29;20054;-84
2021/01/19 15:09:31;;;;;;;1.38;1.23;;;10.40;99.90;;;;;;4849896;29;20066;-84
2021/01/19 15:12:18;;;;;;;12.30;5.40;;;;;;;;;;4847669;29;20061;-83
2021/01/19 15:14:48;;;;;;;4.88;1.95;;;;;;;;;;4850103;29;20046;-85
2021/01/19 15:17:20;;;;;;;2.45;2.15;;;;;;;;;;4832093;29;20058;-83
2021/01/19 15:19:54;;;;;;;6.25;1.90;;;10.50;99.90;;;;;;4840243;29;20050;-88
2021/01/19 15:22:26;;;;;;;6.75;2.28;;;;;;;;;;4844372;29;20062;-85
2021/01/19 15:24:56;;;;;;;3.85;1.75;;;;;;;;;;4844005;29;20054;-86
2021/01/19 15:27:32;;;;;;;1.67;1.25;;;;;;;;;;4833203;29;20066;-85
2021/01/19 15:30:01;;;;;;;4.57;1.40;;;;;;;;;;4865859;29;20057;-83
2021/01/19 15:32:30;;;;;;;3.22;1.98;;;;;;;;;;4843314;29;20073;-84
2021/01/19 15:35:11;;;;;;;4.78;1.65;;;;;;;;;;4870083;29;20064;-83
2021/01/19 15:37:49;;;;;;;1.80;1.45;;;10.50;99.90;;;;;;4853086;24;20050;-83
2021/01/19 15:40:26;;;;;;;5.78;1.38;;;;;;;;;;4896148;24;20740;-91
2021/01/19 15:43:07;;;;;;;3.47;1.73;;;;;;;;;;4833547;29;20057;-86
2021/01/19 15:45:38;;;;;;;3.33;1.85;;;;;;;;;;4814944;29;20419;-86
2021/01/19 15:48:15;;;;;;;3.53;1.17;;;;;;;;;;4818349;29;20059;-86
2021/01/19 15:50:45;;;;;;;2.85;2.47;;;;;;;;;;4846644;29;20047;-85
2021/01/19 15:53:21;;;;;;;21.33;3.15;;;;;;;;;;4839269;29;20042;-86
2021/01/19 15:55:50;;;;;;;8.05;2.30;;;;;;;;;;4838540;29;20068;-90
2021/01/19 15:58:35;;;;;;;9.93;3.65;;;10.50;99.90;;;;;;4824876;29;20054;-85
2021/01/19 16:01:16;;;;;;;7.80;2.50;;;10.40;99.90;;;;;;4832416;29;20039;-86
2021/01/19 16:03:44;;;;;;;7.68;3.05;;;;;;;;;;4840067;29;20054;-88
2021/01/19 16:06:16;;;;;;;5.45;3.08;;;;;;;;;;4831328;29;20051;-90
2021/01/19 16:08:45;;;;;;;3.80;2.05;;;;;;;;;;4835965;29;20133;-85